Time;durP1;ratioP1;P1;durP2;ratioP2;P2;SDS_P1;SDS_P2;PMS_P1;PMS_P2;Temp;Humidity;BMP_temperature;BMP_pressure;BME280_temperature;BME280_humidity;BME280_pressure;Samples;Min_cycle;Max_cycle;Signal;HPM_P1;HPM_P2
2023/06/23 00:00:11;;;;;;;1.90;1.80;;;25.10;90.80;;;;;;5093124;28;20787;-89
2023/06/23 00:02:38;;;;;;;2.37;2.17;;;25.20;90.80;;;;;;5093996;28;20449;-89
2023/06/23 00:05:07;;;;;;;3.70;2.47;;;25.10;90.80;;;;;;5096986;28;20956;-89
2023/06/23 00:07:34;;;;;;;1.77;1.67;;;25.10;90.80;;;;;;5097234;28;20444;-90
2023/06/23 00:10:05;;;;;;;2.00;1.90;;;25.10;90.80;;;;;;5097237;28;20448;-89
2023/06/23 00:12:33;;;;;;;1.90;1.80;;;25.10;90.70;;;;;;5097393;28;20582;-89
2023/06/23 00:15:01;;;;;;;2.00;1.80;;;25.10;90.60;;;;;;5097010;28;20436;-89
2023/06/23 00:17:28;;;;;;;1.67;1.57;;;25.10;90.70;;;;;;5096893;28;20471;-89
2023/06/23 00:19:55;;;;;;;1.80;1.70;;;25.10;90.70;;;;;;5096807;28;20435;-89
2023/06/23 00:22:22;;;;;;;2.10;2.00;;;25.10;90.70;;;;;;5096904;28;20540;-90
2023/06/23 00:24:49;;;;;;;1.70;1.60;;;25.10;90.70;;;;;;5096773;28;20443;-89
2023/06/23 00:27:16;;;;;;;1.80;1.70;;;25.10;90.70;;;;;;5096944;28;20449;-89
2023/06/23 00:29:43;;;;;;;2.40;2.10;;;25.10;90.70;;;;;;5096817;28;20526;-89
2023/06/23 00:32:11;;;;;;;1.70;1.60;;;25.10;90.70;;;;;;5096529;28;20999;-90
2023/06/23 00:34:38;;;;;;;2.10;1.97;;;25.10;90.70;;;;;;5096519;28;20435;-89
2023/06/23 00:37:05;;;;;;;1.77;1.67;;;25.10;90.70;;;;;;5096363;28;20539;-88
2023/06/23 00:39:32;;;;;;;1.80;1.70;;;25.10;90.70;;;;;;5096331;28;20439;-88
2023/06/23 00:42:03;;;;;;;2.37;2.17;;;25.10;90.70;;;;;;5096569;28;20450;-89
2023/06/23 00:44:29;;;;;;;1.73;1.63;;;25.10;90.70;;;;;;5096529;28;20446;-88
2023/06/23 00:46:56;;;;;;;1.70;1.60;;;25.10;90.80;;;;;;5096373;28;20434;-89
2023/06/23 00:49:24;;;;;;;2.03;1.90;;;25.10;90.80;;;;;;5096310;28;20445;-89
2023/06/23 00:51:52;;;;;;;1.90;1.80;;;25.10;90.80;;;;;;5096140;28;20562;-90
2023/06/23 00:54:19;;;;;;;1.80;1.70;;;25.10;90.80;;;;;;5096118;28;20857;-88
2023/06/23 00:56:47;;;;;;;2.00;1.90;;;25.10;90.80;;;;;;5096121;28;20465;-89
2023/06/23 00:59:15;;;;;;;1.90;1.80;;;25.10;90.80;;;;;;5096201;28;20435;-89
2023/06/23 01:01:42;;;;;;;1.87;1.77;;;25.10;90.80;;;;;;5096075;28;20919;-90
2023/06/23 01:04:09;;;;;;;1.90;1.80;;;25.10;90.80;;;;;;5095793;28;20446;-89
2023/06/23 01:06:46;;;;;;;2.17;1.70;;;25.10;90.80;;;;;;5095923;28;20543;-89
2023/06/23 01:09:20;;;;;;;2.00;1.90;;;25.10;90.80;;;;;;5095942;28;20439;-90
2023/06/23 01:12:04;;;;;;;1.50;1.40;;;25.10;90.80;;;;;;5095542;28;20478;-89
2023/06/23 01:14:36;;;;;;;1.77;1.67;;;25.10;90.80;;;;;;5094833;28;20463;-89
2023/06/23 01:17:10;;;;;;;2.00;1.90;;;25.10;90.70;;;;;;5095721;28;20445;-89
2023/06/23 01:19:55;;;;;;;2.20;2.00;;;25.10;90.80;;;;;;5095703;28;20440;-89
2023/06/23 01:22:30;;;;;;;1.50;1.40;;;25.10;90.80;;;;;;5095772;28;20440;-89
2023/06/23 01:25:15;;;;;;;1.70;1.60;;;25.10;90.80;;;;;;5095715;28;20440;-88
2023/06/23 01:27:58;;;;;;;1.97;1.87;;;25.10;90.80;;;;;;5095698;28;20467;-89
2023/06/23 01:30:29;;;;;;;1.90;1.80;;;25.10;90.80;;;;;;5095585;28;20523;-88
2023/06/23 01:33:03;;;;;;;1.60;1.50;;;25.00;90.80;;;;;;5095551;28;20577;-90
2023/06/23 01:35:33;;;;;;;1.80;1.70;;;25.10;90.80;;;;;;5095501;28;20446;-89
2023/06/23 01:38:07;;;;;;;1.63;1.53;;;25.00;90.70;;;;;;5095350;28;20447;-90
2023/06/23 01:40:35;;;;;;;1.83;1.73;;;25.00;90.70;;;;;;5095231;28;20443;-89
2023/06/23 01:43:06;;;;;;;1.70;1.60;;;25.00;90.70;;;;;;5095399;28;20453;-89
2023/06/23 01:45:39;;;;;;;1.70;1.50;;;25.10;90.80;;;;;;5095390;28;20504;-89
2023/06/23 01:48:11;;;;;;;1.80;1.70;;;25.00;90.80;;;;;;5095268;28;20491;-89
2023/06/23 01:50:40;;;;;;;1.67;1.57;;;25.10;90.80;;;;;;5095096;28;20436;-89
2023/06/23 01:53:08;;;;;;;1.70;1.60;;;25.00;90.70;;;;;;5095073;28;20841;-89
2023/06/23 01:55:38;;;;;;;1.80;1.70;;;25.10;90.80;;;;;;5094963;28;20531;-89
2023/06/23 01:58:06;;;;;;;1.70;1.60;;;25.10;90.80;;;;;;5094831;28;20828;-89
2023/06/23 02:00:35;;;;;;;1.80;1.70;;;25.00;90.80;;;;;;5094913;28;20531;-88
2023/06/23 02:03:04;;;;;;;1.97;1.87;;;25.00;90.70;;;;;;5094920;28;20442;-89
2023/06/23 02:05:35;;;;;;;1.80;1.70;;;25.00;90.80;;;;;;5094826;28;20526;-89
2023/06/23 02:08:03;;;;;;;1.67;1.57;;;25.00;90.70;;;;;;5094776;28;20541;-89
2023/06/23 02:10:31;;;;;;;1.50;1.40;;;25.00;91.10;;;;;;5095052;28;20438;-90
2023/06/23 02:12:59;;;;;;;1.67;1.57;;;25.00;90.70;;;;;;5094363;28;20491;-89
2023/06/23 02:15:28;;;;;;;2.03;1.80;;;25.00;90.80;;;;;;5094717;28;20538;-90
2023/06/23 02:17:57;;;;;;;2.20;2.00;;;25.00;90.80;;;;;;5094690;28;20431;-88
2023/06/23 02:20:26;;;;;;;1.53;1.43;;;25.00;90.70;;;;;;5094813;28;20524;-90
2023/06/23 02:22:54;;;;;;;1.60;1.37;;;25.00;90.70;;;;;;5094594;28;20481;-89
2023/06/23 02:25:22;;;;;;;1.80;1.70;;;25.00;90.70;;;;;;5094045;28;20528;-89
2023/06/23 02:27:49;;;;;;;1.60;1.50;;;25.00;90.80;;;;;;5094390;28;20474;-89
2023/06/23 02:30:18;;;;;;;1.40;1.30;;;25.00;90.90;;;;;;5094404;28;20501;-88
2023/06/23 02:32:46;;;;;;;1.50;1.40;;;25.00;90.80;;;;;;5094429;28;20508;-90
2023/06/23 02:35:14;;;;;;;1.40;1.30;;;25.00;90.90;;;;;;5094354;28;20436;-89
2023/06/23 02:37:44;;;;;;;2.13;1.93;;;25.00;90.90;;;;;;5094149;28;20443;-88
2023/06/23 02:40:16;;;;;;;1.33;1.23;;;25.00;90.90;;;;;;5094126;28;20436;-88
2023/06/23 02:42:46;;;;;;;2.03;1.93;;;25.00;90.90;;;;;;5094134;28;20442;-89
2023/06/23 02:45:18;;;;;;;1.50;1.40;;;25.00;90.80;;;;;;5094359;28;20444;-89
2023/06/23 02:47:47;;;;;;;1.63;1.53;;;25.00;90.70;;;;;;5094141;28;20447;-90
2023/06/23 02:50:19;;;;;;;1.47;1.37;;;25.00;90.80;;;;;;5093938;28;20531;-89
2023/06/23 02:52:49;;;;;;;1.60;1.50;;;25.00;90.80;;;;;;5093947;28;20824;-89
2023/06/23 02:55:20;;;;;;;1.90;1.80;;;25.00;90.80;;;;;;5094297;28;20462;-88
2023/06/23 02:57:50;;;;;;;1.70;1.60;;;25.00;91.30;;;;;;5093897;28;20532;-88
2023/06/23 03:00:22;;;;;;;1.70;1.60;;;25.00;91.40;;;;;;5093764;28;20432;-88
2023/06/23 03:02:53;;;;;;;1.40;1.30;;;25.00;90.90;;;;;;5094266;28;20447;-88
2023/06/23 03:05:22;;;;;;;1.90;1.80;;;25.00;90.90;;;;;;5093745;28;20804;-88
2023/06/23 03:07:51;;;;;;;1.50;1.40;;;25.00;90.90;;;;;;5093549;28;20796;-88
2023/06/23 03:10:19;;;;;;;1.97;1.87;;;25.00;90.90;;;;;;5093741;28;20525;-89
2023/06/23 03:12:46;;;;;;;1.70;1.60;;;25.00;90.90;;;;;;5093511;28;20838;-88
2023/06/23 03:15:14;;;;;;;1.80;1.70;;;25.00;90.90;;;;;;5093577;28;20451;-88
2023/06/23 03:17:42;;;;;;;1.50;1.30;;;25.00;90.80;;;;;;5093624;28;20929;-89
2023/06/23 03:20:15;;;;;;;1.93;1.83;;;25.00;91.30;;;;;;5093597;28;20433;-88
2023/06/23 03:22:48;;;;;;;1.80;1.70;;;25.00;90.90;;;;;;5093695;28;20436;-88
2023/06/23 03:25:18;;;;;;;1.70;1.60;;;25.00;90.80;;;;;;5093497;28;20451;-89
2023/06/23 03:27:46;;;;;;;1.80;1.60;;;25.00;90.90;;;;;;5093312;28;20983;-89
2023/06/23 03:30:23;;;;;;;1.90;1.80;;;25.00;90.90;;;;;;5093673;28;20799;-88
2023/06/23 03:32:52;;;;;;;1.70;1.60;;;25.00;90.90;;;;;;5093170;28;20492;-90
2023/06/23 03:35:22;;;;;;;1.73;1.63;;;25.00;90.80;;;;;;5093187;28;20504;-91
2023/06/23 03:37:53;;;;;;;1.57;1.47;;;25.00;91.00;;;;;;5092861;28;20543;-90
2023/06/23 03:40:23;;;;;;;1.87;1.70;;;25.00;90.90;;;;;;5093447;28;20438;-90
2023/06/23 03:42:55;;;;;;;1.73;1.60;;;25.00;90.90;;;;;;5093365;28;20465;-89
2023/06/23 03:45:25;;;;;;;1.80;1.70;;;25.00;90.90;;;;;;5093643;28;20500;-90
2023/06/23 03:47:59;;;;;;;1.60;1.50;;;25.00;90.90;;;;;;5093105;28;20430;-90
2023/06/23 03:50:28;;;;;;;2.37;1.83;;;25.00;90.90;;;;;;5093263;28;20439;-90
2023/06/23 03:52:59;;;;;;;1.80;1.70;;;25.00;90.90;;;;;;5093172;28;20493;-89
2023/06/23 03:55:28;;;;;;;1.87;1.50;;;25.00;90.90;;;;;;5093180;28;20443;-89
2023/06/23 03:57:56;;;;;;;1.60;1.50;;;25.00;90.90;;;;;;5093192;28;20845;-89
2023/06/23 04:00:24;;;;;;;1.73;1.63;;;25.00;90.90;;;;;;5093226;28;20442;-90
2023/06/23 04:02:52;;;;;;;1.70;1.60;;;25.00;90.90;;;;;;5093190;28;20442;-91
2023/06/23 04:05:21;;;;;;;1.60;1.50;;;25.00;90.90;;;;;;5093200;28;20459;-91
2023/06/23 04:07:50;;;;;;;1.63;1.53;;;25.00;90.90;;;;;;5093119;28;20442;-91
2023/06/23 04:10:21;;;;;;;1.73;1.63;;;25.00;90.90;;;;;;5092964;28;20443;-90
2023/06/23 04:12:49;;;;;;;1.73;1.63;;;25.00;90.90;;;;;;5092865;28;21052;-89
2023/06/23 04:15:19;;;;;;;1.67;1.50;;;24.90;90.80;;;;;;5093153;28;20870;-90
2023/06/23 04:17:46;;;;;;;1.60;1.50;;;25.00;90.90;;;;;;5093091;28;20476;-90
2023/06/23 04:20:15;;;;;;;1.80;1.70;;;24.90;90.90;;;;;;5093134;28;20526;-90
2023/06/23 04:22:45;;;;;;;1.80;1.67;;;24.90;90.90;;;;;;5092931;28;20462;-90
2023/06/23 04:25:13;;;;;;;1.40;1.30;;;25.00;90.90;;;;;;5092846;28;20449;-89
2023/06/23 04:27:44;;;;;;;1.87;1.60;;;25.00;90.80;;;;;;5092855;28;20501;-90
2023/06/23 04:30:13;;;;;;;1.43;1.33;;;24.90;90.90;;;;;;5092794;28;20970;-90
2023/06/23 04:32:41;;;;;;;1.60;1.50;;;25.00;91.30;;;;;;5092725;28;20485;-89
2023/06/23 04:35:08;;;;;;;1.50;1.40;;;25.00;90.70;;;;;;5093330;28;20468;-89
2023/06/23 04:37:40;;;;;;;1.30;1.20;;;25.00;90.90;;;;;;5092718;28;20448;-90
2023/06/23 04:40:12;;;;;;;1.40;1.30;;;25.00;90.90;;;;;;5092776;28;20536;-90
2023/06/23 04:42:45;;;;;;;1.60;1.50;;;25.00;90.80;;;;;;5093641;28;20479;-89
2023/06/23 04:45:17;;;;;;;1.40;1.30;;;25.00;90.80;;;;;;5093410;28;20447;-89
2023/06/23 04:47:46;;;;;;;1.30;1.20;;;24.90;90.80;;;;;;5093761;28;20519;-90
2023/06/23 04:50:16;;;;;;;1.67;1.57;;;24.90;90.80;;;;;;5094282;28;20915;-89
2023/06/23 04:52:49;;;;;;;1.30;1.20;;;25.00;90.80;;;;;;5096279;28;20473;-89
2023/06/23 04:55:19;;;;;;;1.40;1.30;;;24.90;90.80;;;;;;5096335;28;20929;-89
2023/06/23 04:57:50;;;;;;;1.60;1.50;;;24.90;90.80;;;;;;5096121;28;20473;-89
2023/06/23 05:00:22;;;;;;;1.57;1.47;;;24.90;90.80;;;;;;5096235;28;20794;-89
2023/06/23 05:02:50;;;;;;;1.53;1.43;;;24.90;90.70;;;;;;5096276;28;20519;-90
2023/06/23 05:05:23;;;;;;;1.60;1.50;;;24.90;90.70;;;;;;5096115;28;20922;-91
2023/06/23 05:07:52;;;;;;;1.50;1.40;;;24.90;90.70;;;;;;5096345;28;20450;-91
2023/06/23 05:10:20;;;;;;;2.07;1.90;;;24.90;90.70;;;;;;5096134;28;20537;-89
2023/06/23 05:12:50;;;;;;;1.80;1.70;;;24.90;90.70;;;;;;5095966;28;20588;-89
2023/06/23 05:15:20;;;;;;;1.40;1.30;;;24.90;90.70;;;;;;5095690;28;20450;-89
2023/06/23 05:17:50;;;;;;;1.50;1.30;;;24.90;90.70;;;;;;5095726;28;20451;-90
2023/06/23 05:20:20;;;;;;;1.67;1.57;;;24.90;90.80;;;;;;5095954;28;20500;-89
2023/06/23 05:22:49;;;;;;;1.43;1.33;;;24.90;90.90;;;;;;5095630;28;20442;-90
2023/06/23 05:25:18;;;;;;;1.43;1.33;;;24.90;90.60;;;;;;5095399;28;20443;-89
2023/06/23 05:27:52;;;;;;;1.73;1.63;;;24.90;90.60;;;;;;5095482;28;20562;-91
2023/06/23 05:30:20;;;;;;;1.47;1.37;;;24.90;90.60;;;;;;5095922;28;20434;-89
2023/06/23 05:32:50;;;;;;;1.50;1.40;;;24.90;90.60;;;;;;5095528;28;20497;-89
2023/06/23 05:35:18;;;;;;;1.80;1.70;;;24.90;90.70;;;;;;5095474;28;20621;-90
2023/06/23 05:37:47;;;;;;;1.73;1.63;;;24.90;90.60;;;;;;5095209;28;20541;-89
2023/06/23 05:40:15;;;;;;;1.50;1.40;;;24.90;90.60;;;;;;5095321;28;20978;-87
2023/06/23 05:42:43;;;;;;;1.80;1.70;;;24.90;90.60;;;;;;5095372;28;20475;-90
2023/06/23 05:45:12;;;;;;;1.60;1.50;;;24.90;90.60;;;;;;5095204;28;20431;-90
2023/06/23 05:47:43;;;;;;;1.87;1.73;;;24.90;90.60;;;;;;5095055;28;20432;-89
2023/06/23 05:50:20;;;;;;;1.37;1.27;;;24.90;90.50;;;;;;5095196;28;20439;-89
2023/06/23 05:52:56;;;;;;;1.63;1.53;;;24.90;90.60;;;;;;5095026;28;20525;-90
2023/06/23 05:55:25;;;;;;;1.90;1.80;;;24.90;90.60;;;;;;5095299;28;20921;-91
2023/06/23 05:57:59;;;;;;;1.60;1.50;;;24.90;90.60;;;;;;5095119;28;20460;-90
2023/06/23 06:00:31;;;;;;;1.47;1.37;;;24.90;90.70;;;;;;5094627;28;20452;-89
2023/06/23 06:03:01;;;;;;;1.60;1.50;;;24.90;90.60;;;;;;5095020;28;20457;-90
2023/06/23 06:05:29;;;;;;;1.60;1.50;;;24.90;91.00;;;;;;5094964;28;20454;-90
2023/06/23 06:07:58;;;;;;;1.67;1.57;;;24.90;90.70;;;;;;5094724;28;21563;-90
2023/06/23 06:10:27;;;;;;;1.80;1.70;;;24.90;90.60;;;;;;5094482;28;20449;-91
2023/06/23 06:12:56;;;;;;;1.30;1.20;;;24.90;90.60;;;;;;5094447;28;20487;-91
2023/06/23 06:15:24;;;;;;;1.70;1.60;;;24.90;90.60;;;;;;5094734;28;20441;-90
2023/06/23 06:17:53;;;;;;;1.53;1.37;;;24.90;90.70;;;;;;5094800;28;20435;-90
2023/06/23 06:20:21;;;;;;;1.57;1.47;;;24.90;90.70;;;;;;5094331;28;20437;-90
2023/06/23 06:22:50;;;;;;;1.70;1.60;;;24.90;91.00;;;;;;5094600;28;20964;-90
2023/06/23 06:25:16;;;;;;;1.53;1.43;;;24.90;90.60;;;;;;5094413;28;20918;-90
2023/06/23 06:27:46;;;;;;;1.70;1.60;;;24.90;90.60;;;;;;5094332;28;20537;-89
2023/06/23 06:30:15;;;;;;;1.50;1.40;;;24.90;90.50;;;;;;5094282;28;20534;-89
2023/06/23 06:32:43;;;;;;;1.30;1.20;;;24.90;90.60;;;;;;5094149;28;20471;-90
2023/06/23 06:35:15;;;;;;;1.60;1.50;;;24.90;90.60;;;;;;5094177;28;20452;-90
2023/06/23 06:37:47;;;;;;;1.60;1.50;;;24.90;90.60;;;;;;5094072;28;20507;-90
2023/06/23 06:40:18;;;;;;;1.50;1.40;;;24.90;90.60;;;;;;5094306;28;20443;-90
2023/06/23 06:42:45;;;;;;;1.70;1.60;;;24.90;90.60;;;;;;5094126;28;20427;-89
2023/06/23 06:45:12;;;;;;;2.17;1.97;;;24.90;90.90;;;;;;5093958;28;20768;-89
2023/06/23 06:47:43;;;;;;;1.80;1.60;;;24.90;90.40;;;;;;5094018;28;20538;-90
2023/06/23 06:50:14;;;;;;;1.40;1.30;;;24.90;90.50;;;;;;5094001;28;20482;-89
2023/06/23 06:52:43;;;;;;;1.60;1.50;;;24.90;90.60;;;;;;5093739;28;20466;-89
2023/06/23 06:55:15;;;;;;;1.60;1.50;;;24.90;90.60;;;;;;5093867;28;20527;-89
2023/06/23 06:57:43;;;;;;;1.63;1.53;;;24.90;90.60;;;;;;5093598;28;20478;-91
2023/06/23 07:00:10;;;;;;;1.50;1.40;;;24.90;90.50;;;;;;5094397;28;20435;-90
2023/06/23 07:02:40;;;;;;;1.63;1.53;;;24.90;90.40;;;;;;5093593;28;20448;-89
2023/06/23 07:05:08;;;;;;;1.50;1.40;;;24.90;90.60;;;;;;5093574;28;20455;-91
2023/06/23 07:07:36;;;;;;;1.37;1.27;;;24.90;90.60;;;;;;5093992;28;20527;-91
2023/06/23 07:10:03;;;;;;;1.87;1.67;;;24.90;90.70;;;;;;5093498;28;20445;-89
2023/06/23 07:12:31;;;;;;;1.90;1.80;;;24.90;90.70;;;;;;5092783;28;20946;-89
2023/06/23 07:14:58;;;;;;;1.47;1.37;;;24.90;90.70;;;;;;5093451;28;20519;-91
2023/06/23 07:17:26;;;;;;;1.67;1.57;;;24.90;90.70;;;;;;5093650;28;20530;-89
2023/06/23 07:19:53;;;;;;;1.50;1.40;;;24.90;90.70;;;;;;5093629;28;20551;-89
2023/06/23 07:22:20;;;;;;;1.80;1.57;;;24.90;90.70;;;;;;5093554;28;20435;-90
2023/06/23 07:24:48;;;;;;;1.77;1.67;;;24.90;90.70;;;;;;5093611;28;20469;-91
2023/06/23 07:27:16;;;;;;;1.70;1.60;;;24.90;90.70;;;;;;5093166;28;20471;-90
2023/06/23 07:29:43;;;;;;;1.43;1.33;;;24.90;90.70;;;;;;5093300;28;20453;-89
2023/06/23 07:32:11;;;;;;;1.60;1.50;;;24.90;90.70;;;;;;5093601;28;20435;-90
2023/06/23 07:34:38;;;;;;;1.50;1.40;;;24.90;90.60;;;;;;5093290;28;20484;-89
2023/06/23 07:37:05;;;;;;;1.40;1.30;;;24.90;90.70;;;;;;5093141;28;20436;-90
2023/06/23 07:39:32;;;;;;;1.43;1.33;;;24.90;90.70;;;;;;5093365;28;20533;-89
2023/06/23 07:42:00;;;;;;;1.50;1.40;;;24.90;90.70;;;;;;5093370;28;20530;-90
2023/06/23 07:44:27;;;;;;;1.80;1.70;;;24.90;90.80;;;;;;5093271;28;20441;-90
2023/06/23 07:46:54;;;;;;;1.73;1.63;;;24.90;90.80;;;;;;5093231;28;20447;-91
2023/06/23 07:49:21;;;;;;;1.67;1.57;;;24.90;90.80;;;;;;5093059;28;21028;-90
2023/06/23 07:51:48;;;;;;;1.50;1.40;;;24.90;90.80;;;;;;5093510;28;20440;-90
2023/06/23 07:54:15;;;;;;;1.47;1.37;;;25.00;91.30;;;;;;5092951;28;21022;-90
2023/06/23 07:56:43;;;;;;;1.40;1.30;;;24.90;90.80;;;;;;5092980;28;20545;-90
2023/06/23 07:59:11;;;;;;;1.30;1.20;;;25.00;90.90;;;;;;5093128;28;20500;-89
2023/06/23 08:01:38;;;;;;;1.40;1.30;;;25.00;90.90;;;;;;5093309;28;20941;-90
2023/06/23 08:04:05;;;;;;;1.40;1.30;;;25.00;90.90;;;;;;5093084;28;20485;-90
2023/06/23 08:06:32;;;;;;;1.67;1.57;;;24.90;90.80;;;;;;5093198;28;20530;-89
2023/06/23 08:08:58;;;;;;;1.50;1.40;;;25.00;90.80;;;;;;5093012;28;20435;-90
2023/06/23 08:11:26;;;;;;;1.50;1.40;;;25.00;90.80;;;;;;5093217;28;20526;-90
2023/06/23 08:13:53;;;;;;;1.40;1.30;;;25.00;90.80;;;;;;5093000;28;20566;-90
2023/06/23 08:16:22;;;;;;;1.70;1.60;;;25.00;90.90;;;;;;5092892;28;20435;-89
2023/06/23 08:18:49;;;;;;;1.73;1.63;;;25.00;90.80;;;;;;5092914;28;20443;-90
2023/06/23 08:21:16;;;;;;;1.30;1.20;;;25.00;90.80;;;;;;5093042;28;20446;-90
2023/06/23 08:23:45;;;;;;;1.20;1.10;;;25.00;90.70;;;;;;5094025;28;20447;-90
2023/06/23 08:26:12;;;;;;;1.50;1.40;;;25.00;90.70;;;;;;5096702;28;20914;-90
2023/06/23 08:28:39;;;;;;;1.30;1.20;;;25.00;90.80;;;;;;5096758;28;20444;-89
2023/06/23 08:31:06;;;;;;;1.90;1.80;;;25.00;90.70;;;;;;5097048;28;20517;-90
2023/06/23 08:33:35;;;;;;;1.60;1.37;;;25.00;90.90;;;;;;5096517;28;20565;-91
2023/06/23 08:36:02;;;;;;;1.40;1.30;;;25.00;90.80;;;;;;5096712;28;20445;-90
2023/06/23 08:38:29;;;;;;;1.60;1.50;;;25.00;90.80;;;;;;5096861;28;20756;-90
2023/06/23 08:40:57;;;;;;;1.23;1.13;;;25.00;90.70;;;;;;5096720;28;20791;-90
2023/06/23 08:43:26;;;;;;;1.60;1.50;;;25.00;90.70;;;;;;5096279;28;20534;-90
2023/06/23 08:45:56;;;;;;;1.90;1.80;;;25.00;90.80;;;;;;5096544;28;20486;-91
2023/06/23 08:48:27;;;;;;;1.77;1.67;;;25.00;90.60;;;;;;5096495;28;20819;-90
2023/06/23 08:50:57;;;;;;;1.70;1.27;;;25.00;90.60;;;;;;5096398;28;20442;-91
2023/06/23 08:53:24;;;;;;;1.70;1.60;;;25.00;90.60;;;;;;5096910;28;20543;-90
2023/06/23 08:55:52;;;;;;;1.40;1.30;;;25.00;90.50;;;;;;5096192;28;20447;-89
2023/06/23 08:58:20;;;;;;;1.50;1.40;;;25.00;90.40;;;;;;5096157;28;20818;-91
2023/06/23 09:00:48;;;;;;;1.50;1.40;;;25.10;90.40;;;;;;5096257;28;20810;-89
2023/06/23 09:03:15;;;;;;;1.50;1.40;;;25.00;90.40;;;;;;5096086;28;20531;-89
2023/06/23 09:05:42;;;;;;;1.60;1.50;;;25.10;90.30;;;;;;5096096;28;20443;-91
2023/06/23 09:08:11;;;;;;;1.40;1.30;;;25.10;90.30;;;;;;5096253;28;20815;-90
2023/06/23 09:10:38;;;;;;;1.70;1.60;;;25.00;90.30;;;;;;5096014;28;20936;-90
2023/06/23 09:13:20;;;;;;;1.30;1.20;;;25.10;90.30;;;;;;5095560;28;20485;-90
2023/06/23 09:15:48;;;;;;;1.60;1.50;;;25.10;90.30;;;;;;5095914;28;20481;-91
2023/06/23 09:18:16;;;;;;;1.40;1.30;;;25.00;90.20;;;;;;5095896;28;20864;-90
2023/06/23 09:20:45;;;;;;;1.70;1.50;;;25.10;90.30;;;;;;5095867;28;20928;-91
2023/06/23 09:23:18;;;;;;;1.60;1.30;;;25.00;90.20;;;;;;5095671;28;20530;-90
2023/06/23 09:25:47;;;;;;;1.40;1.30;;;25.10;90.20;;;;;;5095737;28;20788;-90
2023/06/23 09:28:28;;;;;;;1.70;1.60;;;25.10;90.30;;;;;;5095764;28;20461;-90
2023/06/23 09:30:57;;;;;;;1.50;1.40;;;25.10;90.20;;;;;;5095670;28;20443;-90
2023/06/23 09:33:24;;;;;;;1.43;1.33;;;25.10;90.30;;;;;;5095566;28;20436;-90
2023/06/23 09:35:53;;;;;;;1.33;1.23;;;25.10;90.20;;;;;;5094578;28;21049;-90
2023/06/23 09:38:22;;;;;;;1.70;1.60;;;25.00;90.20;;;;;;5095383;28;20443;-90
2023/06/23 09:41:01;;;;;;;1.30;1.20;;;25.00;90.20;;;;;;5095633;28;20449;-90
2023/06/23 09:43:28;;;;;;;1.67;1.57;;;25.10;90.30;;;;;;5095480;28;20442;-90
2023/06/23 09:45:55;;;;;;;1.53;1.40;;;25.00;90.30;;;;;;5095365;28;20449;-90
2023/06/23 09:48:22;;;;;;;1.40;1.30;;;25.10;90.40;;;;;;5095286;28;20487;-90
2023/06/23 09:51:00;;;;;;;1.33;1.20;;;25.10;90.30;;;;;;5095192;28;20433;-91
2023/06/23 09:53:33;;;;;;;1.40;1.30;;;25.10;90.70;;;;;;5095420;28;20458;-91
2023/06/23 09:56:03;;;;;;;1.50;1.40;;;25.10;90.40;;;;;;5094866;28;20483;-90
2023/06/23 09:58:32;;;;;;;1.57;1.47;;;25.10;90.30;;;;;;5095212;28;20534;-90
2023/06/23 10:01:02;;;;;;;1.60;1.50;;;25.10;90.40;;;;;;5095188;28;20446;-90
2023/06/23 10:03:30;;;;;;;2.10;1.40;;;25.10;90.40;;;;;;5094911;28;20448;-91
2023/06/23 10:05:57;;;;;;;1.50;1.40;;;25.10;90.30;;;;;;5094985;28;20809;-90
2023/06/23 10:08:25;;;;;;;1.27;1.17;;;25.10;90.30;;;;;;5094818;28;20505;-90
2023/06/23 10:10:53;;;;;;;1.40;1.30;;;25.10;90.40;;;;;;5094753;28;20447;-91
2023/06/23 10:13:21;;;;;;;1.60;1.50;;;25.10;90.40;;;;;;5094584;28;20482;-91
2023/06/23 10:15:49;;;;;;;2.03;1.43;;;25.10;90.40;;;;;;5094562;28;20488;-90
2023/06/23 10:18:16;;;;;;;1.30;1.20;;;25.10;90.40;;;;;;5094800;28;20428;-91
2023/06/23 10:20:45;;;;;;;1.30;1.20;;;25.10;90.40;;;;;;5094781;28;20451;-91
2023/06/23 10:23:14;;;;;;;1.20;1.10;;;25.10;90.40;;;;;;5094499;28;20971;-90
2023/06/23 10:25:43;;;;;;;1.93;1.60;;;25.10;90.50;;;;;;5094857;28;20509;-90
2023/06/23 10:28:13;;;;;;;1.47;1.37;;;25.10;90.50;;;;;;5094370;28;20547;-91
2023/06/23 10:30:43;;;;;;;1.20;1.10;;;25.10;90.50;;;;;;5094472;28;20443;-90
2023/06/23 10:33:16;;;;;;;1.37;1.27;;;25.10;90.50;;;;;;5094529;28;20445;-90
2023/06/23 10:35:44;;;;;;;1.40;1.30;;;25.10;90.40;;;;;;5094471;28;20570;-90
2023/06/23 10:38:15;;;;;;;1.50;1.40;;;25.10;90.50;;;;;;5094340;28;20791;-90
2023/06/23 10:40:49;;;;;;;1.50;1.40;;;25.10;90.50;;;;;;5094768;28;20528;-91
2023/06/23 10:43:19;;;;;;;1.50;1.33;;;25.10;90.50;;;;;;5094484;28;20546;-91
2023/06/23 10:45:46;;;;;;;1.43;1.33;;;25.10;90.50;;;;;;5094536;28;20547;-91
2023/06/23 10:48:14;;;;;;;1.50;1.40;;;25.10;90.50;;;;;;5094345;28;20440;-91
2023/06/23 10:50:42;;;;;;;1.50;1.40;;;25.10;90.50;;;;;;5094152;28;20517;-91
2023/06/23 10:53:16;;;;;;;1.30;1.20;;;25.20;90.50;;;;;;5094078;28;20516;-91
2023/06/23 10:55:44;;;;;;;1.30;1.20;;;25.10;90.50;;;;;;5093925;28;20479;-91
2023/06/23 10:58:13;;;;;;;1.37;1.27;;;25.10;90.50;;;;;;5094075;28;20464;-92
2023/06/23 11:00:46;;;;;;;1.30;1.20;;;25.20;90.60;;;;;;5093988;28;20938;-91
2023/06/23 11:03:27;;;;;;;1.40;1.30;;;25.10;90.50;;;;;;5094136;28;20523;-91
2023/06/23 11:05:55;;;;;;;1.43;1.30;;;25.10;90.70;;;;;;5094042;28;20530;-91
2023/06/23 11:08:31;;;;;;;1.50;1.40;;;25.10;90.60;;;;;;5093524;28;20948;-90
2023/06/23 11:11:00;;;;;;;2.47;1.30;;;25.20;90.70;;;;;;5093880;28;20437;-91
2023/06/23 11:13:42;;;;;;;1.40;1.30;;;25.20;90.70;;;;;;5093577;28;20475;-91
2023/06/23 11:16:15;;;;;;;1.60;1.50;;;25.20;90.60;;;;;;5093530;28;20480;-91
2023/06/23 11:18:51;;;;;;;1.50;1.40;;;25.20;90.60;;;;;;5093765;28;20431;-91
2023/06/23 11:21:19;;;;;;;1.30;1.20;;;25.20;90.60;;;;;;5093845;28;20471;-90
2023/06/23 11:24:09;;;;;;;1.70;1.60;;;25.20;90.60;;;;;;5093744;28;20538;-92
2023/06/23 11:26:36;;;;;;;1.57;1.47;;;25.20;90.70;;;;;;5093617;28;21039;-91
2023/06/23 11:29:10;;;;;;;1.60;1.10;;;25.20;90.70;;;;;;5093804;28;20439;-92
2023/06/23 11:32:02;;;;;;;1.60;1.50;;;25.10;90.70;;;;;;5093889;28;20534;-91
2023/06/23 11:34:30;;;;;;;1.50;1.40;;;25.20;90.70;;;;;;5093708;28;20478;-92
2023/06/23 11:36:58;;;;;;;1.33;1.23;;;25.10;90.70;;;;;;5093739;28;20445;-91
2023/06/23 11:39:26;;;;;;;1.40;1.30;;;25.10;90.60;;;;;;5093804;28;20532;-92
2023/06/23 11:41:53;;;;;;;1.87;1.67;;;25.20;90.60;;;;;;5094242;28;20488;-89
2023/06/23 11:44:22;;;;;;;1.60;1.50;;;25.20;90.60;;;;;;5093654;28;20492;-91
2023/06/23 11:46:54;;;;;;;1.80;1.70;;;25.20;90.70;;;;;;5093876;28;20440;-91
2023/06/23 11:49:24;;;;;;;1.90;1.80;;;25.20;90.70;;;;;;5093463;28;20432;-91
2023/06/23 11:51:51;;;;;;;1.63;1.53;;;25.20;90.50;;;;;;5093600;28;20523;-92
2023/06/23 11:54:18;;;;;;;1.30;1.20;;;25.20;90.70;;;;;;5093456;28;20432;-92
2023/06/23 11:56:45;;;;;;;1.47;1.37;;;25.20;90.70;;;;;;5093386;28;20616;-92
2023/06/23 11:59:12;;;;;;;1.50;1.40;;;25.20;90.60;;;;;;5095473;28;20467;-92
2023/06/23 12:01:39;;;;;;;1.73;1.63;;;25.20;90.60;;;;;;5097915;28;20773;-92
2023/06/23 12:04:08;;;;;;;1.30;1.20;;;25.20;90.60;;;;;;5097616;28;20525;-92
2023/06/23 12:06:37;;;;;;;1.60;1.50;;;25.20;90.60;;;;;;5097427;28;20533;-92
2023/06/23 12:09:05;;;;;;;1.77;1.50;;;25.20;90.60;;;;;;5097274;28;20445;-92
2023/06/23 12:11:37;;;;;;;1.60;1.50;;;25.20;90.60;;;;;;5097249;28;20444;-92
2023/06/23 12:14:04;;;;;;;1.60;1.50;;;25.20;90.60;;;;;;5098270;28;20528;-92
2023/06/23 12:16:36;;;;;;;1.30;1.20;;;25.20;91.00;;;;;;5097125;28;20562;-92
2023/06/23 12:19:03;;;;;;;1.57;1.47;;;25.20;90.80;;;;;;5097458;28;20436;-92
2023/06/23 12:21:32;;;;;;;1.63;1.53;;;25.20;90.50;;;;;;5097480;28;20803;-92
2023/06/23 12:23:59;;;;;;;1.47;1.37;;;25.20;90.70;;;;;;5097648;28;20440;-92
2023/06/23 12:26:26;;;;;;;1.43;1.33;;;25.20;90.70;;;;;;5097529;28;20982;-92
2023/06/23 12:29:08;;;;;;;1.43;1.33;;;25.20;90.70;;;;;;5097038;28;20468;-92
2023/06/23 12:31:34;;;;;;;1.50;1.40;;;25.20;90.70;;;;;;5098181;28;20461;-92
2023/06/23 12:34:02;;;;;;;1.60;1.50;;;25.20;90.70;;;;;;5097211;28;20537;-93
2023/06/23 12:36:29;;;;;;;1.60;1.50;;;25.20;90.60;;;;;;5096881;28;20485;-93
2023/06/23 12:38:59;;;;;;;1.67;1.57;;;25.20;90.60;;;;;;5097364;28;20452;-92
2023/06/23 12:41:29;;;;;;;1.67;1.57;;;25.20;90.60;;;;;;5097346;28;20536;-91
2023/06/23 12:43:59;;;;;;;1.83;1.20;;;25.20;90.60;;;;;;5096689;28;20465;-93
2023/06/23 12:46:27;;;;;;;1.70;1.60;;;25.20;90.60;;;;;;5096892;28;20521;-93
2023/06/23 12:48:55;;;;;;;1.63;1.53;;;25.20;90.60;;;;;;5096641;28;21001;-92
2023/06/23 12:51:32;;;;;;;1.57;1.47;;;25.20;90.60;;;;;;5096524;28;20927;-94
2023/06/23 12:54:01;;;;;;;1.43;1.33;;;25.20;90.60;;;;;;5096641;28;20440;-94
2023/06/23 12:56:28;;;;;;;1.50;1.40;;;25.20;90.60;;;;;;5096375;28;20502;-93
2023/06/23 12:58:55;;;;;;;1.37;1.27;;;25.20;90.50;;;;;;5097351;28;20463;-92